createdAt,value
2023-02-06T00:02:35.329Z,9.40
2023-02-06T00:05:22.314Z,9.23
2023-02-06T00:08:08.717Z,9.07
2023-02-06T00:10:55.440Z,8.63
2023-02-06T00:13:41.899Z,8.63
2023-02-06T00:16:32.487Z,8.37
2023-02-06T00:19:20.557Z,7.23
2023-02-06T00:22:06.901Z,7.07
2023-02-06T00:24:53.189Z,6.90
2023-02-06T00:27:39.684Z,7.53
2023-02-06T00:30:26.157Z,6.60
2023-02-06T00:33:12.990Z,7.03
2023-02-06T00:36:00.705Z,6.47
2023-02-06T00:38:47.405Z,7.53
2023-02-06T00:41:33.708Z,6.53
2023-02-06T00:44:21.772Z,6.40
2023-02-06T00:47:08.165Z,5.13
2023-02-06T00:49:54.499Z,5.37
2023-02-06T00:52:42.326Z,4.93
2023-02-06T00:55:28.783Z,5.27
2023-02-06T00:58:15.392Z,4.97
2023-02-06T01:01:01.856Z,4.97
2023-02-06T01:03:48.419Z,4.60
2023-02-06T01:06:34.725Z,4.80
2023-02-06T01:09:22.516Z,4.23
2023-02-06T01:12:09.090Z,4.23
2023-02-06T01:14:55.787Z,4.40
2023-02-06T01:17:43.238Z,4.00
2023-02-06T01:20:29.750Z,4.07
2023-02-06T01:23:16.063Z,3.60
2023-02-06T01:26:07.914Z,3.93
2023-02-06T01:28:55.329Z,4.00
2023-02-06T01:31:42.057Z,4.20
2023-02-06T01:34:28.961Z,4.57
2023-02-06T01:37:15.511Z,4.17
2023-02-06T01:40:02.332Z,4.20
2023-02-06T01:42:49.997Z,4.07
2023-02-06T01:45:43.973Z,3.50
2023-02-06T01:48:36.829Z,4.13
2023-02-06T01:51:27.183Z,3.50
2023-02-06T01:54:15.738Z,3.67
2023-02-06T01:57:05.658Z,3.90
2023-02-06T01:59:58.929Z,4.17
2023-02-06T02:02:48.376Z,3.57
2023-02-06T02:05:36.594Z,3.73
2023-02-06T02:08:27.573Z,3.83
2023-02-06T02:11:19.464Z,3.43
2023-02-06T02:14:10.130Z,3.17
2023-02-06T02:17:08.664Z,3.57
2023-02-06T02:20:28.737Z,3.67
2023-02-06T02:23:30.700Z,4.00
2023-02-06T02:26:57.790Z,3.17
2023-02-06T02:30:12.473Z,2.93
2023-02-06T02:33:27.395Z,3.70
2023-02-06T02:36:23.349Z,3.20
2023-02-06T02:39:18.771Z,3.43
2023-02-06T02:42:13.047Z,3.67
2023-02-06T02:45:20.409Z,3.13
2023-02-06T02:48:12.370Z,2.97
2023-02-06T02:51:01.015Z,3.33
2023-02-06T02:53:49.114Z,4.30
2023-02-06T02:56:35.787Z,3.30
2023-02-06T02:59:27.886Z,3.33
2023-02-06T03:02:19.943Z,3.50
2023-02-06T03:05:09.712Z,3.57
2023-02-06T03:08:11.599Z,3.03
2023-02-06T03:11:10.729Z,3.10
2023-02-06T03:14:03.701Z,3.43
2023-02-06T03:16:55.577Z,3.23
2023-02-06T03:19:48.219Z,3.60
2023-02-06T03:22:37.404Z,2.83
2023-02-06T03:25:31.641Z,3.97
2023-02-06T03:28:24.613Z,5.30
2023-02-06T03:31:16.345Z,4.83
2023-02-06T03:34:08.618Z,5.23
2023-02-06T03:36:55.419Z,4.90
2023-02-06T03:39:42.386Z,5.30
2023-02-06T03:42:30.625Z,5.07
2023-02-06T03:45:23.748Z,3.47
2023-02-06T03:48:15.764Z,3.57
2023-02-06T03:51:08.242Z,3.27
2023-02-06T03:53:59.216Z,3.43
2023-02-06T03:56:51.486Z,5.37
2023-02-06T03:59:38.181Z,15.60
2023-02-06T04:02:27.269Z,29.80
2023-02-06T04:05:13.937Z,13.57
2023-02-06T04:08:00.322Z,8.77
2023-02-06T04:10:46.832Z,6.93
2023-02-06T04:13:33.365Z,5.27
2023-02-06T04:16:20.056Z,4.10
2023-02-06T04:19:08.111Z,4.10
2023-02-06T04:21:54.729Z,4.37
2023-02-06T04:24:41.672Z,4.37
2023-02-06T04:27:28.351Z,4.63
2023-02-06T04:30:15.738Z,4.83
2023-02-06T04:33:02.446Z,4.33
2023-02-06T04:35:50.190Z,4.17
2023-02-06T04:38:36.875Z,5.07
2023-02-06T04:41:23.442Z,4.30
2023-02-06T04:44:10.324Z,4.07
2023-02-06T04:46:56.655Z,6.63
2023-02-06T04:49:43.031Z,4.70
2023-02-06T04:52:30.892Z,3.87
2023-02-06T04:55:17.463Z,4.43
2023-02-06T04:58:04.689Z,4.90
2023-02-06T05:00:51.454Z,3.77
2023-02-06T05:03:38.240Z,4.83
2023-02-06T05:06:24.797Z,4.70
2023-02-06T05:09:12.739Z,4.50
2023-02-06T05:11:59.350Z,3.53
2023-02-06T05:14:45.757Z,3.73
2023-02-06T05:17:32.050Z,3.93
2023-02-06T05:20:18.842Z,4.40
2023-02-06T05:23:05.164Z,3.67
2023-02-06T05:25:53.077Z,3.53
2023-02-06T05:28:39.514Z,2.83
2023-02-06T05:31:26.622Z,3.40
2023-02-06T05:34:13.352Z,2.70
2023-02-06T05:36:59.836Z,2.60
2023-02-06T05:39:46.335Z,2.50
2023-02-06T05:42:34.193Z,2.93
2023-02-06T05:45:20.930Z,2.60
2023-02-06T05:48:07.366Z,2.73
2023-02-06T05:50:53.621Z,3.03
2023-02-06T05:53:40.086Z,3.03
2023-02-06T05:56:26.482Z,3.23
2023-02-06T05:59:14.227Z,3.10
2023-02-06T06:02:01.050Z,2.97
2023-02-06T06:04:47.556Z,3.83
2023-02-06T06:07:34.482Z,3.20
2023-02-06T06:10:21.216Z,2.87
2023-02-06T06:13:08.393Z,3.10
2023-02-06T06:15:56.156Z,4.23
2023-02-06T06:18:42.806Z,4.07
2023-02-06T06:21:29.216Z,4.60
2023-02-06T06:24:15.518Z,4.43
2023-02-06T06:27:03.692Z,3.13
2023-02-06T06:29:50.108Z,3.20
2023-02-06T06:32:37.853Z,3.50
2023-02-06T06:35:25.884Z,3.43
2023-02-06T06:38:12.647Z,3.87
2023-02-06T06:40:59.104Z,4.23
2023-02-06T06:43:45.535Z,4.20
2023-02-06T06:46:32.034Z,4.60
2023-02-06T06:49:19.893Z,4.60
2023-02-06T06:52:13.383Z,4.73
2023-02-06T06:55:06.905Z,4.70
2023-02-06T06:57:53.544Z,8.80
2023-02-06T07:00:40.801Z,4.50
2023-02-06T07:03:27.587Z,5.13
2023-02-06T07:06:16.115Z,5.37
2023-02-06T07:09:02.834Z,6.47
2023-02-06T07:11:49.276Z,4.80
2023-02-06T07:14:35.497Z,5.27
2023-02-06T07:17:22.094Z,4.60
2023-02-06T07:20:10.104Z,4.67
2023-02-06T07:22:57.828Z,5.10
2023-02-06T07:25:44.417Z,5.20
2023-02-06T07:28:31.290Z,5.13
2023-02-06T07:31:17.947Z,5.30
2023-02-06T07:34:05.051Z,4.73
2023-02-06T07:36:51.604Z,5.37
2023-02-06T07:39:39.506Z,5.30
2023-02-06T07:42:26.247Z,5.00
2023-02-06T07:45:12.527Z,5.73
2023-02-06T07:47:58.818Z,5.30
2023-02-06T07:50:45.346Z,5.50
2023-02-06T07:53:31.884Z,5.80
2023-02-06T07:56:23.243Z,4.83
2023-02-06T07:59:10.389Z,5.80
2023-02-06T08:01:57.007Z,5.57
2023-02-06T08:04:43.745Z,5.23
2023-02-06T08:07:30.194Z,5.17
2023-02-06T08:10:17.075Z,5.83
2023-02-06T08:13:05.144Z,5.40
2023-02-06T08:15:51.899Z,5.83
2023-02-06T08:18:38.932Z,6.30
2023-02-06T08:21:26.579Z,5.90
2023-02-06T08:24:14.150Z,6.43
2023-02-06T08:27:00.865Z,6.20
2023-02-06T08:29:48.813Z,7.57
2023-02-06T08:32:36.205Z,6.50
2023-02-06T08:35:22.818Z,6.67
2023-02-06T08:38:09.132Z,6.17
2023-02-06T08:40:55.651Z,6.23
2023-02-06T08:43:42.045Z,6.37
2023-02-06T08:46:32.494Z,5.77
2023-02-06T08:49:20.882Z,6.60
2023-02-06T08:52:07.381Z,7.27
2023-02-06T08:54:53.919Z,9.85
2023-02-06T08:57:40.549Z,9.23
2023-02-06T09:00:27.113Z,8.67
2023-02-06T09:03:14.945Z,7.17
2023-02-06T09:06:09.949Z,7.60
2023-02-06T09:08:57.903Z,6.93
2023-02-06T09:11:44.390Z,6.93
2023-02-06T09:14:31.970Z,7.07
2023-02-06T09:17:18.928Z,7.03
2023-02-06T09:20:07.538Z,7.83
2023-02-06T09:22:54.234Z,9.07
2023-02-06T09:25:41.083Z,14.13
2023-02-06T09:28:27.735Z,9.00
2023-02-06T09:31:14.807Z,7.77
2023-02-06T09:34:01.567Z,7.70
2023-02-06T09:36:49.306Z,7.73
2023-02-06T09:39:35.853Z,6.70
2023-02-06T09:42:31.039Z,7.97
2023-02-06T09:45:21.851Z,7.47
2023-02-06T09:48:17.669Z,7.93
2023-02-06T09:51:12.269Z,6.33
2023-02-06T09:54:10.045Z,6.60
2023-02-06T09:57:01.651Z,6.67
2023-02-06T09:59:53.293Z,6.33
2023-02-06T10:03:13.595Z,7.27
2023-02-06T10:06:12.417Z,7.63
2023-02-06T10:09:04.391Z,6.40
2023-02-06T10:11:56.109Z,6.77
2023-02-06T10:14:46.200Z,6.50
2023-02-06T10:17:36.146Z,6.40
2023-02-06T10:20:35.485Z,6.50
2023-02-06T10:23:27.496Z,7.37
2023-02-06T10:26:18.308Z,6.30
2023-02-06T10:29:06.011Z,6.43
2023-02-06T10:32:05.264Z,7.27
2023-02-06T10:35:04.592Z,7.50
2023-02-06T10:38:21.003Z,7.60
2023-02-06T10:41:13.348Z,6.97
2023-02-06T10:44:06.152Z,7.10
2023-02-06T10:46:55.186Z,8.07
2023-02-06T10:49:47.665Z,6.97
2023-02-06T10:52:36.650Z,6.77
2023-02-06T10:55:26.621Z,7.47
2023-02-06T10:58:18.202Z,6.60
2023-02-06T11:01:23.697Z,7.70
2023-02-06T11:04:16.036Z,7.30
2023-02-06T11:07:04.576Z,6.90
2023-02-06T11:09:51.201Z,7.10
2023-02-06T11:12:41.859Z,13.03
2023-02-06T11:15:33.949Z,7.70
2023-02-06T11:18:28.915Z,7.70
2023-02-06T11:21:37.051Z,8.43
2023-02-06T11:24:25.571Z,7.80
2023-02-06T11:27:18.030Z,7.80
2023-02-06T11:30:09.629Z,8.23
2023-02-06T11:33:04.722Z,7.53
2023-02-06T11:35:56.680Z,7.17
2023-02-06T11:38:56.081Z,7.50
2023-02-06T11:41:55.856Z,7.93
2023-02-06T11:44:43.943Z,8.23
2023-02-06T11:47:32.425Z,7.70
2023-02-06T11:50:26.891Z,7.23
2023-02-06T11:53:18.202Z,7.43
2023-02-06T11:56:17.624Z,7.67
2023-02-06T11:59:07.133Z,8.87
2023-02-06T12:01:54.482Z,8.43
2023-02-06T12:04:42.718Z,9.40
2023-02-06T12:07:33.810Z,8.43
2023-02-06T12:10:24.427Z,8.67
2023-02-06T12:13:18.772Z,9.33
2023-02-06T12:16:08.617Z,8.37
2023-02-06T12:18:58.736Z,7.60
2023-02-06T12:21:49.285Z,7.50
2023-02-06T12:24:40.870Z,8.40
2023-02-06T12:27:35.218Z,8.03
2023-02-06T12:30:34.360Z,9.53
2023-02-06T12:33:25.514Z,16.47
2023-02-06T12:36:17.312Z,13.20
2023-02-06T12:39:05.975Z,9.33
2023-02-06T12:42:08.449Z,9.20
2023-02-06T12:45:00.820Z,9.20
2023-02-06T12:47:55.185Z,9.03
2023-02-06T12:50:46.474Z,7.97
2023-02-06T12:53:38.908Z,11.77
2023-02-06T13:29:48.942Z,8.00
2023-02-06T13:32:50.224Z,7.13
2023-02-06T13:35:54.358Z,7.10
2023-02-06T13:38:42.400Z,7.70
2023-02-06T13:41:31.382Z,7.10
2023-02-06T13:44:23.825Z,7.43
2023-02-06T13:47:43.282Z,8.30
2023-02-06T13:50:43.861Z,8.23
2023-02-06T13:54:02.093Z,8.67
2023-02-06T13:57:04.704Z,7.27
2023-02-06T13:59:55.353Z,7.33
2023-02-06T14:02:47.544Z,13.20
2023-02-06T14:05:44.860Z,8.23
2023-02-06T14:08:44.297Z,7.60
2023-02-06T14:12:05.023Z,7.13
2023-02-06T14:15:04.199Z,7.30
2023-02-06T14:18:16.055Z,6.90
2023-02-06T14:21:14.968Z,7.17
2023-02-06T14:24:19.956Z,7.20
2023-02-06T14:27:23.478Z,6.83
2023-02-06T14:30:22.744Z,6.37
2023-02-06T14:33:26.341Z,5.80
2023-02-06T14:36:24.785Z,6.30
2023-02-06T14:39:45.806Z,5.27
2023-02-06T14:42:36.978Z,4.73
2023-02-06T14:45:33.842Z,5.47
2023-02-06T14:48:34.002Z,5.83
2023-02-06T14:51:24.906Z,5.37
2023-02-06T14:54:28.822Z,5.87
2023-02-06T14:57:19.982Z,5.70
2023-02-06T15:00:18.728Z,4.60
2023-02-06T15:03:15.488Z,4.33
2023-02-06T15:06:06.295Z,4.20
2023-02-06T15:08:53.145Z,3.57
2023-02-06T15:11:39.775Z,3.70
2023-02-06T15:14:28.959Z,3.13
2023-02-06T15:17:21.067Z,3.87
2023-02-06T15:20:26.545Z,3.60
2023-02-06T15:23:19.089Z,3.90
2023-02-06T15:26:12.624Z,3.77
2023-02-06T15:29:00.513Z,4.57
2023-02-06T15:31:48.931Z,4.63
2023-02-06T15:34:35.823Z,4.27
2023-02-06T15:37:24.900Z,4.20
2023-02-06T15:40:20.875Z,5.53
2023-02-06T15:43:07.991Z,6.17
2023-02-06T15:45:56.958Z,4.60
2023-02-06T15:48:51.136Z,4.27
2023-02-06T15:51:41.815Z,4.40
2023-02-06T15:54:29.535Z,4.47
2023-02-06T15:57:33.116Z,4.97
2023-02-06T16:00:24.484Z,5.10
2023-02-06T16:03:20.914Z,4.80
2023-02-06T16:06:15.322Z,4.83
2023-02-06T16:09:06.440Z,4.80
2023-02-06T16:11:56.210Z,5.33
2023-02-06T16:14:56.111Z,5.17
2023-02-06T16:17:42.802Z,5.17
2023-02-06T16:20:37.136Z,4.33
2023-02-06T16:23:27.724Z,4.73
2023-02-06T16:26:18.330Z,4.30
2023-02-06T16:29:15.938Z,4.57
2023-02-06T16:32:14.541Z,4.43
2023-02-06T16:35:01.686Z,3.90
2023-02-06T16:37:49.609Z,4.30
2023-02-06T16:40:36.641Z,4.87
2023-02-06T16:43:23.618Z,4.97
2023-02-06T16:46:10.120Z,5.00
2023-02-06T16:49:00.669Z,4.83
2023-02-06T16:51:49.586Z,5.17
2023-02-06T16:54:36.328Z,5.13
2023-02-06T16:57:27.203Z,5.30
2023-02-06T17:00:20.278Z,5.23
2023-02-06T17:03:07.014Z,5.85
2023-02-06T17:05:54.988Z,7.25
2023-02-06T17:08:41.347Z,5.63
2023-02-06T17:11:28.022Z,6.07
2023-02-06T17:14:14.672Z,5.53
2023-02-06T17:17:02.113Z,5.10
2023-02-06T17:19:49.232Z,5.50
2023-02-06T17:22:37.019Z,4.97
2023-02-06T17:25:23.301Z,5.30
2023-02-06T17:28:12.142Z,5.07
2023-02-06T17:30:58.631Z,5.57
2023-02-06T17:33:45.478Z,6.60
2023-02-06T17:36:33.124Z,7.00
2023-02-06T17:39:21.975Z,7.40
2023-02-06T17:42:08.764Z,7.10
2023-02-06T17:44:55.162Z,6.73
2023-02-06T17:47:41.477Z,6.93
2023-02-06T17:50:30.299Z,7.87
2023-02-06T17:53:17.824Z,7.20
2023-02-06T17:56:07.446Z,7.37
2023-02-06T17:58:53.876Z,7.13
2023-02-06T18:01:40.420Z,7.17
2023-02-06T18:04:27.308Z,6.87
2023-02-06T18:07:13.576Z,6.57
2023-02-06T18:10:00.188Z,6.80
2023-02-06T18:12:49.001Z,6.70
2023-02-06T18:15:35.744Z,7.77
2023-02-06T18:18:23.487Z,8.10
2023-02-06T18:21:10.006Z,7.83
2023-02-06T18:23:56.524Z,7.20
2023-02-06T18:26:43.085Z,7.23
2023-02-06T18:29:43.755Z,6.80
2023-02-06T18:32:37.040Z,7.23
2023-02-06T18:35:23.752Z,7.70
2023-02-06T18:38:10.844Z,7.37
2023-02-06T18:41:03.110Z,8.60
2023-02-06T18:43:48.845Z,7.83
2023-02-06T18:46:37.894Z,7.73
2023-02-06T18:49:24.920Z,9.20
2023-02-06T18:52:11.532Z,9.73
2023-02-06T18:54:58.129Z,7.70
2023-02-06T18:57:44.486Z,9.43
2023-02-06T19:00:30.816Z,9.27
2023-02-06T19:03:18.670Z,9.00
2023-02-06T19:06:12.822Z,10.10
2023-02-06T19:09:00.194Z,9.40
2023-02-06T19:11:47.967Z,9.17
2023-02-06T19:14:34.662Z,9.27
2023-02-06T19:17:21.202Z,9.20
2023-02-06T19:20:11.150Z,9.70
2023-02-06T19:22:57.629Z,9.60
2023-02-06T19:25:43.932Z,9.90
2023-02-06T19:28:30.345Z,9.73
2023-02-06T19:31:23.670Z,9.50
2023-02-06T19:34:10.445Z,9.10
2023-02-06T19:36:58.739Z,9.73
2023-02-06T19:39:45.012Z,9.57
2023-02-06T19:42:31.304Z,10.33
2023-02-06T19:45:17.864Z,11.10
2023-02-06T19:48:06.447Z,12.37
2023-02-06T19:50:52.801Z,12.40
2023-02-06T19:53:45.319Z,12.17
2023-02-06T19:56:36.250Z,12.70
2023-02-06T19:59:24.262Z,12.40
2023-02-06T20:02:14.289Z,13.57
2023-02-06T20:05:02.549Z,11.77
2023-02-06T20:07:49.185Z,11.50
2023-02-06T20:10:39.676Z,11.33
2023-02-06T20:13:26.139Z,11.13
2023-02-06T20:16:17.880Z,9.40
2023-02-06T20:19:08.160Z,9.63
2023-02-06T20:21:57.927Z,8.80
2023-02-06T20:24:44.632Z,8.97
2023-02-06T20:27:32.592Z,9.40
2023-02-06T20:30:22.038Z,8.83
2023-02-06T20:33:09.426Z,8.27
2023-02-06T20:35:56.152Z,8.63
2023-02-06T20:38:42.540Z,7.87
2023-02-06T20:41:31.487Z,9.10
2023-02-06T20:44:20.649Z,9.47
2023-02-06T20:47:07.100Z,9.27
2023-02-06T20:49:53.875Z,9.20
2023-02-06T20:52:40.406Z,9.37
2023-02-06T20:55:28.587Z,9.17
2023-02-06T20:58:15.144Z,9.80
2023-02-06T21:01:03.019Z,12.53
2023-02-06T21:03:50.506Z,10.80
2023-02-06T21:06:38.448Z,10.37
2023-02-06T21:09:25.597Z,13.50
2023-02-06T21:12:12.150Z,12.43
2023-02-06T21:14:58.912Z,22.53
2023-02-06T21:17:47.176Z,12.13
2023-02-06T21:20:33.868Z,8.10
2023-02-06T21:23:20.275Z,7.87
2023-02-06T21:26:07.538Z,8.00
2023-02-06T21:28:54.381Z,7.33
2023-02-06T21:31:41.388Z,7.17
2023-02-06T21:34:29.323Z,6.90
2023-02-06T21:37:15.905Z,7.13
2023-02-06T21:40:02.581Z,7.27
2023-02-06T21:42:49.192Z,6.60
2023-02-06T21:45:38.603Z,6.10
2023-02-06T21:48:25.266Z,6.67
2023-02-06T21:51:14.891Z,7.10
2023-02-06T21:54:01.485Z,7.23
2023-02-06T21:56:47.952Z,6.93
2023-02-06T21:59:34.366Z,7.27
2023-02-06T22:02:20.683Z,6.73
2023-02-06T22:05:08.143Z,6.80
2023-02-06T22:07:56.828Z,7.10
2023-02-06T22:10:43.537Z,7.33
2023-02-06T22:13:30.049Z,6.53
2023-02-06T22:16:23.592Z,6.87
2023-02-06T22:19:11.484Z,7.47
2023-02-06T22:21:57.851Z,8.20
2023-02-06T22:24:46.015Z,8.67
2023-02-06T22:27:34.022Z,8.20
2023-02-06T22:30:20.955Z,8.07
2023-02-06T22:33:07.860Z,8.07
2023-02-06T22:35:54.389Z,8.03
2023-02-06T22:38:41.694Z,7.60
2023-02-06T22:41:30.197Z,8.50
2023-02-06T22:44:18.301Z,7.60
2023-02-06T22:47:05.307Z,8.00
2023-02-06T22:49:53.411Z,8.13
2023-02-06T22:52:57.272Z,7.73
2023-02-06T22:56:01.282Z,8.20
2023-02-06T22:58:50.626Z,7.97
2023-02-06T23:01:39.321Z,8.37
2023-02-06T23:04:28.206Z,7.70
2023-02-06T23:07:14.854Z,7.93
2023-02-06T23:10:01.280Z,7.73
2023-02-06T23:12:47.635Z,8.03
2023-02-06T23:15:41.018Z,7.97
2023-02-06T23:18:29.597Z,7.60
2023-02-06T23:21:17.120Z,7.90
2023-02-06T23:24:04.465Z,6.77
2023-02-06T23:26:53.284Z,6.93
2023-02-06T23:29:39.641Z,8.03
2023-02-06T23:32:27.468Z,8.37
2023-02-06T23:35:14.108Z,7.97
2023-02-06T23:38:00.570Z,7.20
2023-02-06T23:40:47.794Z,8.37
2023-02-06T23:43:35.180Z,8.83
2023-02-06T23:46:22.852Z,8.77
2023-02-06T23:49:11.016Z,7.93
2023-02-06T23:51:57.408Z,7.53
2023-02-06T23:54:43.929Z,7.87
2023-02-06T23:57:30.353Z,9.10
